createdAt,value
2022-10-11T00:00:41.202Z,100.00
2022-10-11T00:03:09.539Z,100.00
2022-10-11T00:05:37.864Z,100.00
2022-10-11T00:08:06.571Z,100.00
2022-10-11T00:10:35.357Z,100.00
2022-10-11T00:13:05.216Z,100.00
2022-10-11T00:15:34.176Z,100.00
2022-10-11T00:18:05.270Z,100.00
2022-10-11T00:20:33.505Z,100.00
2022-10-11T00:23:01.406Z,100.00
2022-10-11T00:25:29.433Z,100.00
2022-10-11T00:27:57.659Z,100.00
2022-10-11T00:30:27.067Z,100.00
2022-10-11T00:32:55.038Z,100.00
2022-10-11T00:35:23.000Z,100.00
2022-10-11T00:37:50.965Z,100.00
2022-10-11T00:40:21.064Z,100.00
2022-10-11T00:42:48.982Z,100.00
2022-10-11T00:45:59.364Z,100.00
2022-10-11T00:48:37.349Z,100.00
2022-10-11T00:51:11.305Z,100.00
2022-10-11T00:53:39.434Z,100.00
2022-10-11T00:56:11.161Z,100.00
2022-10-11T00:58:39.968Z,100.00
2022-10-11T01:01:08.502Z,100.00
2022-10-11T01:03:39.807Z,100.00
2022-10-11T01:06:08.413Z,100.00
2022-10-11T01:08:37.060Z,100.00
2022-10-11T01:11:05.284Z,100.00
2022-10-11T01:13:41.656Z,100.00
2022-10-11T01:16:16.481Z,100.00
2022-10-11T01:18:55.164Z,100.00
2022-10-11T01:21:36.769Z,100.00
2022-10-11T01:24:38.938Z,100.00
2022-10-11T01:27:31.398Z,100.00
2022-10-11T01:30:15.834Z,100.00
2022-10-11T01:32:51.599Z,100.00
2022-10-11T01:35:25.414Z,100.00
2022-10-11T01:38:00.751Z,100.00
2022-10-11T01:40:34.498Z,100.00
2022-10-11T01:43:04.603Z,100.00
2022-10-11T01:48:47.177Z,100.00
2022-10-11T01:51:16.110Z,100.00
2022-10-11T01:54:05.815Z,100.00
2022-10-11T01:56:59.836Z,100.00
2022-10-11T01:59:43.925Z,100.00
2022-10-11T02:02:28.014Z,100.00
2022-10-11T02:05:04.368Z,100.00
2022-10-11T02:07:41.248Z,100.00
2022-10-11T02:10:16.872Z,100.00
2022-10-11T02:12:50.085Z,100.00
2022-10-11T02:15:20.190Z,100.00
2022-10-11T02:17:52.208Z,100.00
2022-10-11T02:20:25.909Z,100.00
2022-10-11T02:23:00.789Z,100.00
2022-10-11T02:25:33.527Z,100.00
2022-10-11T02:28:05.367Z,100.00
2022-10-11T02:30:34.237Z,100.00
2022-10-11T02:33:04.835Z,100.00
2022-10-11T02:35:40.403Z,100.00
2022-10-11T02:38:17.528Z,100.00
2022-10-11T02:40:48.711Z,100.00
2022-10-11T02:43:24.864Z,100.00
2022-10-11T02:45:57.377Z,100.00
2022-10-11T02:48:27.506Z,100.00
2022-10-11T02:50:58.280Z,100.00
2022-10-11T02:53:27.860Z,100.00
2022-10-11T02:55:56.718Z,100.00
2022-10-11T02:58:25.334Z,100.00
2022-10-11T03:00:53.365Z,100.00
2022-10-11T03:03:21.547Z,100.00
2022-10-11T03:05:49.495Z,100.00
2022-10-11T03:08:19.054Z,100.00
2022-10-11T03:10:46.933Z,100.00
2022-10-11T03:13:18.109Z,100.00
2022-10-11T03:16:01.921Z,100.00
2022-10-11T03:18:31.221Z,100.00
2022-10-11T03:20:59.074Z,100.00
2022-10-11T03:23:28.388Z,100.00
2022-10-11T03:25:56.610Z,100.00
2022-10-11T03:28:24.561Z,100.00
2022-10-11T03:30:53.431Z,100.00
2022-10-11T03:33:21.314Z,100.00
2022-10-11T03:35:50.166Z,100.00
2022-10-11T03:38:20.701Z,100.00
2022-10-11T03:40:50.567Z,100.00
2022-10-11T03:43:19.133Z,100.00
2022-10-11T03:45:47.021Z,100.00
2022-10-11T03:48:15.000Z,100.00
2022-10-11T03:50:43.202Z,100.00
2022-10-11T03:53:11.111Z,100.00
2022-10-11T03:55:40.112Z,100.00
2022-10-11T03:58:09.975Z,100.00
2022-10-11T04:00:38.753Z,100.00
2022-10-11T04:03:06.699Z,100.00
2022-10-11T04:05:34.727Z,100.00
2022-10-11T04:08:02.645Z,100.00
2022-10-11T04:10:31.070Z,100.00
2022-10-11T04:12:59.140Z,100.00
2022-10-11T04:15:28.550Z,100.00
2022-10-11T04:17:56.451Z,100.00
2022-10-11T04:20:24.461Z,100.00
2022-10-11T04:22:52.553Z,100.00
2022-10-11T04:25:20.452Z,100.00
2022-10-11T04:27:48.623Z,100.00
2022-10-11T04:30:17.408Z,100.00
2022-10-11T04:32:46.694Z,100.00
2022-10-11T04:35:14.605Z,100.00
2022-10-11T04:37:42.551Z,100.00
2022-10-11T04:40:11.875Z,100.00
2022-10-11T04:42:39.750Z,100.00
2022-10-11T04:45:09.455Z,100.00
2022-10-11T04:47:38.035Z,100.00
2022-10-11T04:50:08.220Z,100.00
2022-10-11T04:52:36.591Z,100.00
2022-10-11T04:55:05.013Z,100.00
2022-10-11T04:57:32.910Z,100.00
2022-10-11T05:00:00.795Z,100.00
2022-10-11T05:02:28.743Z,100.00
2022-10-11T05:04:56.832Z,100.00
2022-10-11T05:07:26.110Z,100.00
2022-10-11T05:09:54.597Z,100.00
2022-10-11T05:12:22.647Z,100.00
2022-10-11T05:14:50.561Z,100.00
2022-10-11T05:17:18.451Z,100.00
2022-10-11T05:19:46.407Z,100.00
2022-10-11T05:22:14.306Z,100.00
2022-10-11T05:24:43.548Z,100.00
2022-10-11T05:27:11.516Z,100.00
2022-10-11T05:29:39.419Z,100.00
2022-10-11T05:32:07.325Z,100.00
2022-10-11T05:34:35.278Z,100.00
2022-10-11T05:37:03.167Z,100.00
2022-10-11T05:39:31.222Z,100.00
2022-10-11T05:42:00.663Z,100.00
2022-10-11T05:44:28.594Z,100.00
2022-10-11T05:46:56.457Z,100.00
2022-10-11T05:49:24.389Z,100.00
2022-10-11T05:51:52.288Z,100.00
2022-10-11T05:54:20.156Z,100.00
2022-10-11T05:56:48.488Z,100.00
2022-10-11T05:59:17.743Z,100.00
2022-10-11T06:01:45.717Z,99.91
2022-10-11T06:04:14.924Z,100.00
2022-10-11T06:06:42.916Z,99.40
2022-10-11T06:09:10.875Z,99.34
2022-10-11T06:11:41.286Z,99.52
2022-10-11T06:14:09.826Z,100.00
2022-10-11T06:16:39.357Z,99.38
2022-10-11T06:19:07.888Z,99.13
2022-10-11T06:21:36.401Z,98.88
2022-10-11T06:24:04.677Z,99.03
2022-10-11T06:26:32.665Z,99.20
2022-10-11T06:29:00.620Z,98.66
2022-10-11T06:31:28.544Z,99.28
2022-10-11T06:33:59.005Z,99.76
2022-10-11T06:36:27.132Z,98.96
2022-10-11T06:38:56.160Z,100.00
2022-10-11T06:41:26.410Z,99.91
2022-10-11T06:43:54.487Z,98.77
2022-10-11T06:46:24.783Z,98.76
2022-10-11T06:48:52.698Z,99.00
2022-10-11T06:51:23.666Z,98.39
2022-10-11T06:53:52.770Z,98.24
2022-10-11T06:56:20.744Z,97.98
2022-10-11T06:58:48.817Z,98.80
2022-10-11T07:01:20.083Z,99.05
2022-10-11T07:03:49.096Z,97.85
2022-10-11T07:06:19.655Z,98.28
2022-10-11T07:08:49.660Z,98.19
2022-10-11T07:11:18.851Z,97.42
2022-10-11T07:13:50.912Z,97.64
2022-10-11T07:16:20.067Z,97.52
2022-10-11T07:18:48.044Z,97.19
2022-10-11T07:21:17.148Z,97.19
2022-10-11T07:23:45.403Z,97.10
2022-10-11T07:26:14.695Z,97.06
2022-10-11T07:28:42.926Z,97.50
2022-10-11T07:31:13.954Z,98.06
2022-10-11T07:33:41.779Z,98.73
2022-10-11T07:36:10.916Z,97.79
2022-10-11T07:38:40.233Z,97.94
2022-10-11T07:41:09.329Z,97.86
2022-10-11T07:43:39.539Z,97.75
2022-10-11T07:46:08.281Z,97.69
2022-10-11T07:48:37.573Z,96.67
2022-10-11T07:51:07.261Z,97.55
2022-10-11T07:53:39.667Z,97.14
2022-10-11T07:56:08.891Z,96.61
2022-10-11T07:58:38.529Z,97.93
2022-10-11T08:01:07.244Z,95.73
2022-10-11T08:03:35.528Z,96.07
2022-10-11T08:06:05.852Z,95.94
2022-10-11T08:08:34.040Z,95.74
2022-10-11T08:11:02.008Z,95.06
2022-10-11T08:13:30.089Z,96.05
2022-10-11T08:15:59.373Z,95.11
2022-10-11T08:18:27.448Z,95.40
2022-10-11T08:20:55.292Z,95.18
2022-10-11T08:23:23.253Z,96.09
2022-10-11T08:25:51.186Z,94.90
2022-10-11T08:28:19.156Z,94.61
2022-10-11T08:30:50.191Z,94.76
2022-10-11T08:33:20.301Z,95.18
2022-10-11T08:35:48.843Z,95.33
2022-10-11T08:38:16.852Z,94.89
2022-10-11T08:40:48.284Z,94.28
2022-10-11T08:43:27.897Z,95.65
2022-10-11T08:45:59.186Z,94.26
2022-10-11T08:48:35.275Z,94.37
2022-10-11T08:51:08.134Z,93.63
2022-10-11T08:53:45.328Z,95.19
2022-10-11T08:56:15.071Z,94.32
2022-10-11T08:58:48.428Z,94.37
2022-10-11T09:01:21.699Z,94.58
2022-10-11T09:03:52.053Z,94.75
2022-10-11T09:06:37.775Z,94.85
2022-10-11T09:09:22.383Z,95.01
2022-10-11T09:12:02.044Z,93.54
2022-10-11T09:14:52.269Z,94.46
2022-10-11T09:17:37.353Z,93.06
2022-10-11T09:20:32.907Z,93.23
2022-10-11T09:23:05.792Z,93.39
2022-10-11T09:25:36.439Z,93.82
2022-10-11T09:28:16.344Z,93.53
2022-10-11T09:30:49.569Z,93.60
2022-10-11T09:33:23.905Z,93.47
2022-10-11T09:35:53.813Z,93.72
2022-10-11T09:38:39.819Z,91.87
2022-10-11T09:41:16.245Z,93.90
2022-10-11T09:43:48.600Z,92.11
2022-10-11T09:46:23.007Z,92.68
2022-10-11T09:48:54.489Z,94.00
2022-10-11T09:51:27.013Z,94.19
2022-10-11T09:53:58.272Z,93.78
2022-10-11T09:56:28.708Z,94.58
2022-10-11T09:59:17.108Z,93.55
2022-10-11T10:01:45.509Z,93.78
2022-10-11T10:04:16.906Z,95.05
2022-10-11T10:06:46.497Z,95.47
2022-10-11T10:09:26.015Z,94.04
2022-10-11T10:11:54.479Z,94.48
2022-10-11T10:14:25.708Z,93.87
2022-10-11T10:17:06.869Z,93.10
2022-10-11T10:19:44.966Z,93.02
2022-10-11T10:22:20.207Z,92.10
2022-10-11T10:24:50.350Z,93.10
2022-10-11T10:27:22.127Z,92.23
2022-10-11T10:30:17.135Z,92.38
2022-10-11T10:32:52.227Z,91.23
2022-10-11T10:35:31.602Z,92.00
2022-10-11T10:38:09.818Z,92.22
2022-10-11T10:40:43.789Z,91.92
2022-10-11T10:43:17.401Z,91.90
2022-10-11T10:46:10.654Z,91.56
2022-10-11T10:51:44.309Z,91.57
2022-10-11T10:54:25.486Z,91.85
2022-10-11T10:56:56.445Z,89.82
2022-10-11T10:59:43.929Z,90.72
2022-10-11T11:02:39.002Z,90.04
2022-10-11T11:05:18.766Z,90.62
2022-10-11T11:07:52.711Z,90.07
2022-10-11T11:10:25.551Z,89.86
2022-10-11T11:13:07.400Z,89.68
2022-10-11T11:15:40.224Z,91.15
2022-10-11T11:18:22.593Z,91.33
2022-10-11T11:21:06.288Z,90.91
2022-10-11T11:23:41.787Z,87.64
2022-10-11T11:26:19.596Z,88.37
2022-10-11T11:28:58.972Z,87.70
2022-10-11T11:31:45.509Z,85.54
2022-10-11T11:34:21.713Z,87.26
2022-10-11T11:36:55.880Z,85.93
2022-10-11T11:39:26.975Z,86.03
2022-10-11T11:42:00.942Z,88.54
2022-10-11T11:44:32.280Z,88.79
2022-10-11T11:47:04.642Z,87.06
2022-10-11T11:49:37.034Z,87.36
2022-10-11T11:52:06.757Z,87.63
2022-10-11T11:54:45.637Z,86.54
2022-10-11T11:57:25.402Z,87.49
2022-10-11T12:00:00.477Z,87.90
2022-10-11T12:02:42.473Z,86.58
2022-10-11T12:05:12.572Z,87.65
2022-10-11T12:07:54.039Z,86.68
2022-10-11T12:10:29.068Z,87.45
2022-10-11T12:13:09.708Z,85.79
2022-10-11T12:15:38.841Z,84.60
2022-10-11T12:18:16.252Z,86.67
2022-10-11T12:20:45.364Z,86.61
2022-10-11T12:23:41.948Z,86.80
2022-10-11T12:26:39.021Z,87.02
2022-10-11T12:29:28.720Z,86.97
2022-10-11T12:32:48.063Z,86.62
2022-10-11T12:36:04.003Z,86.45
2022-10-11T12:38:37.884Z,85.82
2022-10-11T12:41:50.342Z,87.14
2022-10-11T12:44:26.302Z,87.83
2022-10-11T12:47:26.212Z,86.98
2022-10-11T12:50:08.880Z,87.42
2022-10-11T12:52:42.960Z,87.54
2022-10-11T12:55:26.587Z,88.48
2022-10-11T12:58:25.535Z,87.14
2022-10-11T13:01:18.702Z,87.49
2022-10-11T13:03:52.995Z,87.26
2022-10-11T13:06:24.906Z,87.13
2022-10-11T13:08:57.050Z,85.91
2022-10-11T13:11:30.912Z,85.87
2022-10-11T13:14:01.674Z,85.11
2022-10-11T13:16:46.623Z,85.78
2022-10-11T13:19:15.711Z,85.22
2022-10-11T13:21:44.319Z,86.57
2022-10-11T13:24:15.916Z,87.10
2022-10-11T13:26:45.477Z,85.02
2022-10-11T13:29:18.087Z,84.84
2022-10-11T13:31:49.231Z,85.04
2022-10-11T13:34:22.352Z,84.17
2022-10-11T13:36:56.516Z,83.97
2022-10-11T13:39:31.221Z,83.24
2022-10-11T13:42:00.963Z,83.82
2022-10-11T13:44:29.226Z,84.09
2022-10-11T13:46:58.759Z,84.51
2022-10-11T13:49:31.737Z,84.46
2022-10-11T13:52:00.926Z,83.01
2022-10-11T13:55:09.134Z,82.33
2022-10-11T13:57:40.308Z,83.85
2022-10-11T14:00:23.680Z,83.47
2022-10-11T14:02:58.016Z,80.84
2022-10-11T14:05:31.435Z,80.79
2022-10-11T14:08:01.901Z,82.54
2022-10-11T14:10:30.244Z,82.17
2022-10-11T14:13:23.162Z,83.40
2022-10-11T14:16:01.147Z,83.37
2022-10-11T14:18:42.358Z,83.00
2022-10-11T14:21:27.741Z,82.50
2022-10-11T14:23:57.360Z,83.46
2022-10-11T14:26:26.876Z,83.49
2022-10-11T14:28:59.005Z,85.93
2022-10-11T14:31:30.745Z,84.00
2022-10-11T14:34:00.291Z,83.89
2022-10-11T14:36:28.263Z,84.70
2022-10-11T14:38:56.356Z,84.74
2022-10-11T14:41:25.013Z,84.23
2022-10-11T14:43:56.287Z,83.92
2022-10-11T14:46:26.078Z,83.92
2022-10-11T14:48:56.314Z,84.41
2022-10-11T14:51:28.657Z,84.42
2022-10-11T14:53:56.556Z,84.66
2022-10-11T14:56:24.477Z,84.28
2022-10-11T14:58:52.427Z,85.12
2022-10-11T15:01:20.364Z,84.74
2022-10-11T15:03:48.268Z,84.68
2022-10-11T15:06:21.642Z,85.85
2022-10-11T15:08:51.513Z,85.38
2022-10-11T15:11:21.072Z,84.85
2022-10-11T15:13:49.854Z,84.63
2022-10-11T15:16:20.852Z,85.51
2022-10-11T15:18:50.926Z,85.05
2022-10-11T15:21:20.507Z,84.99
2022-10-11T15:23:51.781Z,84.84
2022-10-11T15:26:22.023Z,85.28
2022-10-11T15:28:51.113Z,85.25
2022-10-11T15:31:19.727Z,85.54
2022-10-11T15:33:48.140Z,85.67
2022-10-11T15:36:20.095Z,85.53
2022-10-11T15:38:50.436Z,85.20
2022-10-11T15:41:20.376Z,85.30
2022-10-11T15:43:50.167Z,85.56
2022-10-11T15:46:22.081Z,85.73
2022-10-11T15:48:50.687Z,86.59
2022-10-11T15:51:18.810Z,86.13
2022-10-11T15:53:46.726Z,86.39
2022-10-11T15:56:19.621Z,86.28
2022-10-11T15:58:47.543Z,86.51
2022-10-11T16:01:18.612Z,86.22
2022-10-11T16:03:48.228Z,86.34
2022-10-11T16:06:16.417Z,85.66
2022-10-11T16:08:45.023Z,86.44
2022-10-11T16:11:13.666Z,87.01
2022-10-11T16:13:42.960Z,86.65
2022-10-11T16:16:12.465Z,86.66
2022-10-11T16:18:40.488Z,85.93
2022-10-11T16:21:10.318Z,86.07
2022-10-11T16:23:38.748Z,86.11
2022-10-11T16:26:10.125Z,87.32
2022-10-11T16:28:38.662Z,87.34
2022-10-11T16:31:14.304Z,86.63
2022-10-11T16:33:46.479Z,85.95
2022-10-11T16:36:36.679Z,87.30
2022-10-11T16:39:07.904Z,87.08
2022-10-11T16:41:35.958Z,87.59
2022-10-11T16:44:04.430Z,87.80
2022-10-11T16:46:34.579Z,87.93
2022-10-11T16:49:02.593Z,87.27
2022-10-11T16:51:30.710Z,88.57
2022-10-11T16:53:58.862Z,88.46
2022-10-11T16:56:27.581Z,87.87
2022-10-11T16:58:56.080Z,88.17
2022-10-11T17:01:24.156Z,89.36
2022-10-11T17:03:53.855Z,88.68
2022-10-11T17:06:21.823Z,88.41
2022-10-11T17:08:49.966Z,88.46
2022-10-11T17:11:18.646Z,88.17
2022-10-11T17:13:46.909Z,89.17
2022-10-11T17:16:15.203Z,89.34
2022-10-11T17:18:43.283Z,88.64
2022-10-11T17:21:15.678Z,88.69
2022-10-11T17:23:43.871Z,89.41
2022-10-11T17:26:15.406Z,89.24
2022-10-11T17:28:43.535Z,89.39
2022-10-11T17:31:11.967Z,89.84
2022-10-11T17:33:40.281Z,89.73
2022-10-11T17:36:22.424Z,90.09
2022-10-11T17:38:51.880Z,90.33
2022-10-11T17:41:20.659Z,89.93
2022-10-11T17:43:48.718Z,90.16
2022-10-11T17:46:17.879Z,90.29
2022-10-11T17:48:45.946Z,91.09
2022-10-11T17:51:15.419Z,90.71
2022-10-11T17:53:45.251Z,90.95
2022-10-11T17:56:14.599Z,91.04
2022-10-11T17:58:42.938Z,90.51
2022-10-11T18:01:13.352Z,91.48
2022-10-11T18:03:41.432Z,91.25
2022-10-11T18:06:12.008Z,92.04
2022-10-11T18:08:41.711Z,91.73
2022-10-11T18:11:16.214Z,91.81
2022-10-11T18:13:46.467Z,92.14
2022-10-11T18:16:15.377Z,91.26
2022-10-11T18:18:44.185Z,91.18
2022-10-11T18:21:12.863Z,91.04
2022-10-11T18:23:41.035Z,91.83
2022-10-11T18:26:15.055Z,91.80
2022-10-11T18:28:43.510Z,91.42
2022-10-11T18:31:14.348Z,91.62
2022-10-11T18:33:45.458Z,90.93
2022-10-11T18:36:14.576Z,90.67
2022-10-11T18:38:46.379Z,91.28
2022-10-11T18:41:17.400Z,91.38
2022-10-11T18:43:50.492Z,91.40
2022-10-11T18:46:18.983Z,90.43
2022-10-11T18:48:49.080Z,90.37
2022-10-11T18:51:19.332Z,90.67
2022-10-11T18:53:48.241Z,90.74
2022-10-11T18:56:20.601Z,90.86
2022-10-11T18:58:49.933Z,91.06
2022-10-11T19:01:20.403Z,91.30
2022-10-11T19:03:52.362Z,91.04
2022-10-11T19:06:22.143Z,90.72
2022-10-11T19:08:51.338Z,90.81
2022-10-11T19:11:22.205Z,91.27
2022-10-11T19:13:56.207Z,91.62
2022-10-11T19:16:24.247Z,91.83
2022-10-11T19:18:53.033Z,91.74
2022-10-11T19:21:21.190Z,92.20
2022-10-11T19:23:50.162Z,91.85
2022-10-11T19:26:22.386Z,91.86
2022-10-11T19:28:55.991Z,92.34
2022-10-11T19:31:24.256Z,92.35
2022-10-11T19:33:52.206Z,92.51
2022-10-11T19:36:20.171Z,92.52
2022-10-11T19:38:49.666Z,92.97
2022-10-11T19:41:19.673Z,92.50
2022-10-11T19:43:49.250Z,92.51
2022-10-11T19:46:32.378Z,93.02
2022-10-11T19:49:08.725Z,92.24
2022-10-11T19:51:38.157Z,92.88
2022-10-11T19:54:08.202Z,92.64
2022-10-11T19:56:36.818Z,93.25
2022-10-11T19:59:07.375Z,92.94
2022-10-11T20:01:36.711Z,93.39
2022-10-11T20:04:07.303Z,92.98
2022-10-11T20:06:38.771Z,93.16
2022-10-11T20:11:55.196Z,94.38
2022-10-11T20:14:24.606Z,94.22
2022-10-11T20:16:52.734Z,94.22
2022-10-11T20:19:24.851Z,94.23
2022-10-11T20:21:55.676Z,94.34
2022-10-11T20:24:23.566Z,94.22
2022-10-11T20:26:51.435Z,94.02
2022-10-11T20:29:19.351Z,93.33
2022-10-11T20:31:48.590Z,93.75
2022-10-11T20:34:16.474Z,93.60
2022-10-11T20:36:48.933Z,93.74
2022-10-11T20:39:17.826Z,94.14
2022-10-11T20:41:46.206Z,93.87
2022-10-11T20:44:16.019Z,93.58
2022-10-11T20:46:43.911Z,93.54
2022-10-11T20:49:13.538Z,93.24
2022-10-11T20:51:42.741Z,94.29
2022-10-11T20:54:11.773Z,94.25
2022-10-11T20:56:39.791Z,93.72
2022-10-11T20:59:07.767Z,93.87
2022-10-11T21:01:37.728Z,94.01
2022-10-11T21:04:07.489Z,93.17
2022-10-11T21:06:36.795Z,93.62
2022-10-11T21:09:05.026Z,94.14
2022-10-11T21:11:35.056Z,94.22
2022-10-11T21:14:04.923Z,94.02
2022-10-11T21:16:33.666Z,94.17
2022-10-11T21:19:02.794Z,94.32
2022-10-11T21:21:31.679Z,93.80
2022-10-11T21:24:03.155Z,93.78
2022-10-11T21:26:31.515Z,94.22
2022-10-11T21:29:00.221Z,93.82
2022-10-11T21:31:32.941Z,93.34
2022-10-11T21:34:02.038Z,94.01
2022-10-11T21:36:29.883Z,93.56
2022-10-11T21:38:57.802Z,93.45
2022-10-11T21:41:29.119Z,93.42
2022-10-11T21:43:57.214Z,93.67
2022-10-11T21:46:47.584Z,93.34
2022-10-11T21:49:15.272Z,93.32
2022-10-11T21:51:43.237Z,94.14
2022-10-11T21:54:11.135Z,93.75
2022-10-11T21:56:40.427Z,93.34
2022-10-11T21:59:11.278Z,94.37
2022-10-11T22:01:40.929Z,94.26
2022-10-11T22:04:08.996Z,93.90
2022-10-11T22:06:37.863Z,93.35
2022-10-11T22:09:06.499Z,93.62
2022-10-11T22:11:34.422Z,93.89
2022-10-11T22:14:04.058Z,94.24
2022-10-11T22:16:33.469Z,94.53
2022-10-11T22:19:01.334Z,94.12
2022-10-11T22:21:29.251Z,93.97
2022-10-11T22:23:57.546Z,94.61
2022-10-11T22:26:29.811Z,94.51
2022-10-11T22:28:58.222Z,94.79
2022-10-11T22:31:27.830Z,94.16
2022-10-11T22:33:56.267Z,94.28
2022-10-11T22:36:25.181Z,93.79
2022-10-11T22:38:54.554Z,93.86
2022-10-11T22:41:22.469Z,93.57
2022-10-11T22:43:50.987Z,93.70
2022-10-11T22:46:19.210Z,94.20
2022-10-11T22:48:49.056Z,94.70
2022-10-11T22:51:17.034Z,94.39
2022-10-11T22:53:45.058Z,94.41
2022-10-11T22:56:12.992Z,94.74
2022-10-11T22:58:40.847Z,95.11
2022-10-11T23:01:10.102Z,94.47
2022-10-11T23:03:38.164Z,94.99
2022-10-11T23:06:07.879Z,94.74
2022-10-11T23:08:35.758Z,94.65
2022-10-11T23:11:05.006Z,94.60
2022-10-11T23:13:32.895Z,94.81
2022-10-11T23:16:00.931Z,94.44
2022-10-11T23:18:28.931Z,94.80
2022-10-11T23:21:00.350Z,94.83
2022-10-11T23:23:29.695Z,95.07
2022-10-11T23:26:05.839Z,94.88
2022-10-11T23:28:34.104Z,95.25
2022-10-11T23:31:06.500Z,95.40
2022-10-11T23:33:34.490Z,95.66
2022-10-11T23:36:02.687Z,95.59
2022-10-11T23:38:32.541Z,94.93
2022-10-11T23:41:00.501Z,95.34
2022-10-11T23:43:28.628Z,95.59
2022-10-11T23:45:57.299Z,95.83
2022-10-11T23:48:25.281Z,96.22
2022-10-11T23:50:53.188Z,95.56
2022-10-11T23:53:21.068Z,95.71
2022-10-11T23:55:50.400Z,95.68
2022-10-11T23:58:18.277Z,95.85
